createdAt,value
2019-05-23T00:02:13.373Z,2.17
2019-05-23T00:04:49.136Z,2.10
2019-05-23T00:07:21.054Z,2.50
2019-05-23T00:09:51.378Z,2.63
2019-05-23T00:12:45.794Z,2.80
2019-05-23T00:15:25.563Z,2.60
2019-05-23T00:17:56.371Z,2.07
2019-05-23T00:20:27.868Z,2.73
2019-05-23T00:22:58.857Z,2.63
2019-05-23T00:25:30.152Z,2.90
2019-05-23T00:28:00.301Z,2.97
2019-05-23T00:30:51.795Z,2.93
2019-05-23T00:33:24.927Z,3.07
2019-05-23T00:35:55.082Z,3.47
2019-05-23T00:38:24.843Z,2.90
2019-05-23T00:40:55.204Z,3.20
2019-05-23T00:43:25.667Z,4.33
2019-05-23T00:45:57.070Z,3.03
2019-05-23T00:48:27.390Z,3.03
2019-05-23T00:50:57.073Z,3.20
2019-05-23T00:53:28.139Z,2.90
2019-05-23T00:55:59.239Z,3.63
2019-05-23T00:58:30.513Z,3.53
2019-05-23T01:01:02.533Z,3.33
2019-05-23T01:03:33.426Z,3.37
2019-05-23T01:06:03.190Z,3.03
2019-05-23T01:08:33.203Z,3.20
2019-05-23T01:11:03.884Z,3.37
2019-05-23T01:13:33.715Z,3.37
2019-05-23T01:16:04.114Z,3.17
2019-05-23T01:18:33.586Z,2.93
2019-05-23T01:21:22.054Z,2.20
2019-05-23T01:23:57.880Z,2.63
2019-05-23T01:26:27.372Z,3.50
2019-05-23T01:28:57.476Z,3.10
2019-05-23T01:31:32.450Z,2.83
2019-05-23T01:34:04.246Z,3.20
2019-05-23T01:36:35.820Z,2.90
2019-05-23T01:39:07.324Z,3.00
2019-05-23T01:41:36.901Z,3.23
2019-05-23T01:44:08.291Z,3.60
2019-05-23T01:46:38.803Z,3.70
2019-05-23T01:49:09.940Z,3.50
2019-05-23T01:51:40.400Z,3.60
2019-05-23T01:54:11.390Z,2.53
2019-05-23T01:56:41.169Z,3.40
2019-05-23T01:59:10.653Z,3.90
2019-05-23T02:01:41.702Z,3.77
2019-05-23T02:04:11.230Z,3.40
2019-05-23T02:06:40.578Z,3.37
2019-05-23T02:09:11.627Z,3.40
2019-05-23T02:11:42.044Z,2.93
2019-05-23T02:14:12.057Z,3.20
2019-05-23T02:16:42.539Z,3.20
2019-05-23T02:19:13.767Z,3.20
2019-05-23T02:21:44.636Z,3.70
2019-05-23T02:24:14.588Z,3.40
2019-05-23T02:26:44.719Z,3.70
2019-05-23T02:29:14.135Z,3.57
2019-05-23T02:31:45.186Z,3.60
2019-05-23T02:34:15.381Z,3.30
2019-05-23T02:36:46.410Z,2.77
2019-05-23T02:39:37.432Z,3.27
2019-05-23T02:42:31.046Z,3.23
2019-05-23T02:45:05.518Z,3.80
2019-05-23T02:47:45.861Z,4.13
2019-05-23T02:50:22.504Z,3.27
2019-05-23T02:52:54.291Z,3.47
2019-05-23T02:55:32.055Z,3.33
2019-05-23T02:58:10.417Z,3.43
2019-05-23T03:01:03.472Z,3.10
2019-05-23T03:03:35.287Z,3.67
2019-05-23T03:06:08.355Z,3.67
2019-05-23T03:08:37.890Z,3.30
2019-05-23T03:11:50.150Z,3.43
2019-05-23T03:14:19.930Z,3.93
2019-05-23T03:16:52.175Z,3.30
2019-05-23T03:19:44.886Z,3.43
2019-05-23T03:22:34.331Z,3.50
2019-05-23T03:25:08.835Z,3.67
2019-05-23T03:27:44.457Z,3.37
2019-05-23T03:30:19.398Z,3.67
2019-05-23T03:32:57.916Z,3.63
2019-05-23T03:35:35.713Z,3.50
2019-05-23T03:38:05.623Z,3.47
2019-05-23T03:40:36.365Z,3.17
2019-05-23T03:43:06.454Z,3.37
2019-05-23T03:45:40.235Z,3.60
2019-05-23T03:48:11.584Z,3.87
2019-05-23T03:50:41.534Z,3.80
2019-05-23T03:53:10.913Z,3.83
2019-05-23T03:55:42.275Z,3.77
2019-05-23T03:58:13.116Z,3.73
2019-05-23T04:00:49.681Z,3.83
2019-05-23T04:03:19.476Z,4.50
2019-05-23T04:05:49.234Z,3.73
2019-05-23T04:08:19.537Z,3.67
2019-05-23T04:10:51.691Z,3.57
2019-05-23T04:13:20.029Z,4.10
2019-05-23T04:15:49.446Z,4.53
2019-05-23T04:18:18.873Z,4.50
2019-05-23T04:20:48.490Z,5.03
2019-05-23T04:23:17.810Z,5.40
2019-05-23T04:25:47.172Z,5.37
2019-05-23T04:28:17.035Z,5.30
2019-05-23T04:30:46.900Z,4.97
2019-05-23T04:33:16.508Z,5.73
2019-05-23T04:35:46.272Z,5.93
2019-05-23T04:38:16.070Z,6.23
2019-05-23T04:40:45.449Z,7.20
2019-05-23T04:43:15.198Z,7.30
2019-05-23T04:45:44.817Z,7.93
2019-05-23T04:48:14.473Z,8.63
2019-05-23T04:50:43.864Z,8.33
2019-05-23T04:53:14.247Z,7.50
2019-05-23T04:55:45.453Z,8.53
2019-05-23T04:58:14.835Z,7.60
2019-05-23T05:00:44.588Z,7.27
2019-05-23T05:03:17.936Z,7.97
2019-05-23T05:05:46.994Z,7.13
2019-05-23T05:08:16.582Z,7.10
2019-05-23T05:10:47.387Z,7.80
2019-05-23T05:13:17.002Z,8.27
2019-05-23T05:15:46.359Z,8.43
2019-05-23T05:18:16.299Z,7.00
2019-05-23T05:20:46.064Z,7.03
2019-05-23T05:23:15.474Z,8.30
2019-05-23T05:25:44.793Z,5.57
2019-05-23T05:28:14.172Z,5.37
2019-05-23T05:30:43.665Z,7.70
2019-05-23T05:33:12.995Z,5.57
2019-05-23T05:35:42.947Z,5.90
2019-05-23T05:38:12.515Z,7.20
2019-05-23T05:40:41.843Z,7.10
2019-05-23T05:43:11.691Z,7.10
2019-05-23T05:45:41.054Z,7.23
2019-05-23T05:48:10.716Z,6.67
2019-05-23T05:50:40.425Z,7.27
2019-05-23T05:53:10.455Z,6.40
2019-05-23T05:55:39.918Z,7.03
2019-05-23T05:58:09.301Z,6.40
2019-05-23T06:00:57.637Z,6.33
2019-05-23T06:03:27.492Z,4.90
2019-05-23T06:06:27.916Z,7.95
2019-05-23T06:09:00.328Z,7.30
2019-05-23T06:11:29.967Z,7.12
2019-05-23T06:13:59.261Z,8.28
2019-05-23T06:16:29.123Z,6.35
2019-05-23T06:18:58.716Z,8.10
2019-05-23T06:21:30.526Z,6.37
2019-05-23T06:24:01.080Z,7.95
2019-05-23T06:26:31.158Z,8.85
2019-05-23T06:29:00.571Z,6.25
2019-05-23T06:31:31.529Z,6.42
2019-05-23T06:34:00.970Z,5.85
2019-05-23T06:36:30.568Z,5.97
2019-05-23T06:39:00.495Z,6.15
2019-05-23T06:41:29.837Z,5.37
2019-05-23T06:43:59.452Z,6.85
2019-05-23T06:46:31.041Z,4.80
2019-05-23T06:49:00.404Z,5.30
2019-05-23T06:51:30.965Z,5.72
2019-05-23T06:54:00.423Z,6.20
2019-05-23T06:56:29.684Z,4.75
2019-05-23T06:58:59.100Z,6.10
2019-05-23T07:01:28.398Z,5.83
2019-05-23T07:04:00.833Z,5.10
2019-05-23T07:06:30.213Z,3.92
2019-05-23T07:09:00.245Z,5.90
2019-05-23T07:11:29.913Z,4.92
2019-05-23T07:13:59.373Z,4.90
2019-05-23T07:16:28.774Z,4.03
2019-05-23T07:18:58.345Z,4.47
2019-05-23T07:21:28.324Z,3.60
2019-05-23T07:23:57.720Z,5.00
2019-05-23T07:26:27.307Z,3.58
2019-05-23T07:28:56.890Z,3.92
2019-05-23T07:31:26.171Z,3.70
2019-05-23T07:34:01.965Z,3.85
2019-05-23T07:36:27.021Z,3.80
2019-05-23T07:38:58.409Z,4.78
2019-05-23T07:41:27.765Z,3.35
2019-05-23T07:43:57.102Z,3.15
2019-05-23T07:46:26.480Z,3.40
2019-05-23T07:48:55.969Z,4.92
2019-05-23T07:51:25.451Z,3.80
2019-05-23T07:54:26.191Z,3.47
2019-05-23T07:56:56.266Z,3.50
2019-05-23T07:59:25.797Z,3.02
2019-05-23T08:02:05.732Z,3.50
2019-05-23T08:04:35.066Z,3.90
2019-05-23T08:07:05.037Z,3.40
2019-05-23T08:09:34.421Z,2.90
2019-05-23T08:12:03.828Z,3.17
2019-05-23T08:14:33.876Z,3.98
2019-05-23T08:17:05.250Z,3.83
2019-05-23T08:19:49.215Z,4.17
2019-05-23T08:22:07.137Z,3.00
2019-05-23T08:24:36.555Z,3.58
2019-05-23T08:27:07.527Z,2.55
2019-05-23T08:29:37.518Z,2.05
2019-05-23T08:32:07.781Z,2.60
2019-05-23T08:34:42.394Z,3.00
2019-05-23T08:37:11.535Z,2.72
2019-05-23T08:39:41.711Z,3.12
2019-05-23T08:42:12.266Z,3.62
2019-05-23T08:44:42.307Z,3.08
2019-05-23T08:47:11.764Z,3.10
2019-05-23T08:49:41.667Z,2.55
2019-05-23T08:52:11.004Z,2.37
2019-05-23T08:54:40.416Z,2.92
2019-05-23T08:57:11.351Z,2.83
2019-05-23T08:59:40.827Z,2.90
2019-05-23T09:02:11.892Z,2.85
2019-05-23T09:05:01.376Z,2.20
2019-05-23T09:07:13.482Z,2.90
2019-05-23T09:09:43.802Z,2.70
2019-05-23T09:12:13.575Z,3.00
2019-05-23T09:14:42.995Z,2.65
2019-05-23T09:17:12.889Z,3.40
2019-05-23T09:19:42.246Z,2.95
2019-05-23T09:22:11.855Z,2.27
2019-05-23T09:24:41.303Z,2.60
2019-05-23T09:27:11.267Z,3.67
2019-05-23T09:29:40.887Z,2.15
2019-05-23T09:32:10.474Z,3.08
2019-05-23T09:34:39.823Z,3.87
2019-05-23T09:37:09.443Z,1.25
2019-05-23T09:39:40.555Z,3.58
2019-05-23T09:42:12.141Z,1.55
2019-05-23T09:44:40.984Z,2.25
2019-05-23T09:47:10.373Z,2.75
2019-05-23T09:49:39.764Z,3.60
2019-05-23T09:52:11.100Z,2.33
2019-05-23T09:54:40.567Z,2.02
2019-05-23T09:57:09.954Z,2.65
2019-05-23T09:59:39.323Z,2.00
2019-05-23T10:02:08.790Z,2.02
2019-05-23T10:04:38.162Z,3.27
2019-05-23T10:07:07.594Z,3.45
2019-05-23T10:09:36.900Z,3.10
2019-05-23T10:12:06.239Z,1.90
2019-05-23T10:14:36.788Z,2.30
2019-05-23T10:17:06.083Z,2.00
2019-05-23T10:19:35.618Z,1.50
2019-05-23T10:22:06.731Z,1.95
2019-05-23T10:24:39.879Z,1.80
2019-05-23T10:27:10.772Z,2.10
2019-05-23T10:29:40.176Z,1.47
2019-05-23T10:32:11.984Z,1.10
2019-05-23T10:34:41.479Z,1.32
2019-05-23T10:37:12.721Z,1.50
2019-05-23T10:39:46.503Z,1.00
2019-05-23T10:42:15.961Z,1.60
2019-05-23T10:44:45.359Z,0.90
2019-05-23T10:47:14.934Z,1.30
2019-05-23T10:49:44.652Z,1.25
2019-05-23T10:52:14.114Z,1.02
2019-05-23T10:54:43.500Z,1.07
2019-05-23T10:57:12.932Z,1.22
2019-05-23T10:59:42.304Z,1.07
2019-05-23T11:02:12.710Z,0.95
2019-05-23T11:04:42.347Z,0.85
2019-05-23T11:07:13.028Z,1.10
2019-05-23T11:09:43.225Z,1.12
2019-05-23T11:12:12.631Z,1.35
2019-05-23T11:14:42.096Z,1.15
2019-05-23T11:17:12.067Z,1.35
2019-05-23T11:19:41.896Z,1.00
2019-05-23T11:22:11.691Z,1.27
2019-05-23T11:24:41.306Z,1.15
2019-05-23T11:27:12.982Z,0.80
2019-05-23T11:29:42.485Z,1.27
2019-05-23T11:32:12.901Z,1.50
2019-05-23T11:34:42.400Z,0.80
2019-05-23T11:37:12.099Z,1.12
2019-05-23T11:39:49.736Z,0.80
2019-05-23T11:42:12.815Z,1.15
2019-05-23T11:44:42.176Z,1.12
2019-05-23T11:47:12.383Z,1.45
2019-05-23T11:49:43.675Z,1.30
2019-05-23T11:52:14.721Z,1.20
2019-05-23T11:54:44.327Z,1.02
2019-05-23T11:57:13.723Z,0.70
2019-05-23T11:59:43.298Z,0.95
2019-05-23T12:02:24.996Z,0.75
2019-05-23T12:04:56.074Z,1.00
2019-05-23T12:07:27.471Z,0.60
2019-05-23T12:09:56.816Z,1.00
2019-05-23T12:12:26.707Z,0.82
2019-05-23T12:14:57.168Z,1.27
2019-05-23T12:17:29.574Z,1.22
2019-05-23T12:19:59.072Z,1.90
2019-05-23T12:22:29.530Z,1.42
2019-05-23T12:24:59.000Z,0.80
2019-05-23T12:27:28.462Z,0.98
2019-05-23T12:29:57.935Z,1.10
2019-05-23T12:32:27.600Z,1.02
2019-05-23T12:35:10.628Z,1.32
2019-05-23T12:37:28.048Z,1.05
2019-05-23T12:39:57.911Z,0.90
2019-05-23T12:42:32.137Z,1.05
2019-05-23T12:45:01.744Z,0.93
2019-05-23T12:47:46.737Z,1.10
2019-05-23T12:50:19.522Z,1.20
2019-05-23T12:52:49.055Z,1.00
2019-05-23T12:55:18.402Z,1.32
2019-05-23T12:57:47.843Z,0.90
2019-05-23T13:00:35.153Z,0.90
2019-05-23T13:03:06.050Z,0.80
2019-05-23T13:05:36.359Z,0.82
2019-05-23T13:08:06.367Z,0.98
2019-05-23T13:10:35.902Z,1.10
2019-05-23T13:13:05.483Z,0.98
2019-05-23T13:15:36.480Z,0.93
2019-05-23T13:18:06.080Z,1.10
2019-05-23T13:20:35.505Z,1.02
2019-05-23T13:23:05.094Z,0.85
2019-05-23T13:25:34.444Z,1.10
2019-05-23T13:28:03.813Z,0.80
2019-05-23T13:30:33.277Z,1.10
2019-05-23T13:33:03.821Z,0.90
2019-05-23T13:35:34.271Z,0.75
2019-05-23T13:38:03.637Z,0.85
2019-05-23T13:40:33.124Z,1.00
2019-05-23T13:43:08.278Z,1.15
2019-05-23T13:45:35.646Z,1.02
2019-05-23T13:48:05.421Z,0.85
2019-05-23T13:50:35.556Z,1.00
2019-05-23T13:53:06.442Z,1.40
2019-05-23T13:55:37.103Z,0.93
2019-05-23T13:58:09.576Z,1.10
2019-05-23T14:00:39.100Z,0.90
2019-05-23T14:03:08.396Z,0.80
2019-05-23T14:05:37.992Z,0.98
2019-05-23T14:08:12.725Z,1.02
2019-05-23T14:10:39.604Z,0.82
2019-05-23T14:13:08.987Z,0.93
2019-05-23T14:15:41.604Z,1.50
2019-05-23T14:18:11.019Z,1.20
2019-05-23T14:20:40.553Z,1.15
2019-05-23T14:23:17.813Z,1.02
2019-05-23T14:25:47.205Z,1.15
2019-05-23T14:28:16.881Z,1.27
2019-05-23T14:31:14.125Z,0.93
2019-05-23T14:34:04.681Z,1.17
2019-05-23T14:36:47.463Z,1.12
2019-05-23T14:39:45.005Z,1.20
2019-05-23T14:42:28.859Z,1.00
2019-05-23T14:44:58.583Z,1.05
2019-05-23T14:47:40.483Z,0.90
2019-05-23T14:50:37.991Z,1.10
2019-05-23T14:53:09.751Z,0.90
2019-05-23T14:55:39.180Z,0.80
2019-05-23T14:58:08.565Z,1.07
2019-05-23T15:00:38.679Z,0.95
2019-05-23T15:03:08.039Z,1.00
2019-05-23T15:05:37.767Z,1.10
2019-05-23T15:08:07.518Z,1.05
2019-05-23T15:10:36.852Z,1.25
2019-05-23T15:13:06.226Z,1.00
2019-05-23T15:15:35.630Z,1.32
2019-05-23T15:18:05.288Z,1.22
2019-05-23T15:20:34.749Z,1.07
2019-05-23T15:23:04.250Z,1.22
2019-05-23T15:25:33.648Z,1.12
2019-05-23T15:28:03.276Z,0.72
2019-05-23T15:30:32.651Z,0.85
2019-05-23T15:33:01.939Z,0.95
2019-05-23T15:35:32.325Z,1.05
2019-05-23T15:38:01.723Z,1.00
2019-05-23T15:40:31.247Z,1.00
2019-05-23T15:43:00.610Z,1.05
2019-05-23T15:45:31.813Z,1.32
2019-05-23T15:48:01.634Z,1.30
2019-05-23T15:50:36.614Z,1.02
2019-05-23T15:53:12.508Z,1.42
2019-05-23T15:56:26.884Z,1.50
2019-05-23T15:58:49.039Z,1.55
2019-05-23T16:01:33.835Z,1.82
2019-05-23T16:04:06.864Z,1.50
2019-05-23T16:06:37.607Z,1.60
2019-05-23T16:09:27.622Z,1.20
2019-05-23T16:11:42.945Z,1.20
2019-05-23T16:14:12.413Z,1.70
2019-05-23T16:16:41.666Z,1.20
2019-05-23T16:19:12.634Z,1.10
2019-05-23T16:21:42.198Z,0.80
2019-05-23T16:24:12.084Z,0.90
2019-05-23T16:26:41.436Z,1.52
2019-05-23T16:29:12.465Z,1.07
2019-05-23T16:31:41.861Z,1.20
2019-05-23T16:34:11.227Z,0.95
2019-05-23T16:36:40.793Z,1.02
2019-05-23T16:39:10.256Z,1.00
2019-05-23T16:41:39.608Z,1.20
2019-05-23T16:44:09.308Z,1.30
2019-05-23T16:46:38.766Z,1.00
2019-05-23T16:49:08.101Z,1.07
2019-05-23T16:51:37.474Z,0.98
2019-05-23T16:54:07.385Z,1.00
2019-05-23T16:56:55.832Z,0.90
2019-05-23T16:59:48.366Z,1.22
2019-05-23T17:02:37.100Z,0.80
2019-05-23T17:05:34.885Z,0.68
2019-05-23T17:08:21.594Z,0.68
2019-05-23T17:11:09.919Z,0.98
2019-05-23T17:13:52.550Z,0.72
2019-05-23T17:16:40.872Z,0.80
2019-05-23T17:19:15.816Z,0.70
2019-05-23T17:22:13.216Z,0.90
2019-05-23T17:25:01.706Z,0.80
2019-05-23T17:27:53.318Z,0.65
2019-05-23T17:30:40.791Z,1.00
2019-05-23T17:33:11.265Z,0.80
2019-05-23T17:35:40.962Z,0.90
2019-05-23T17:38:10.343Z,1.10
2019-05-23T17:40:39.712Z,1.10
2019-05-23T17:43:10.781Z,1.00
2019-05-23T17:45:40.733Z,1.00
2019-05-23T17:48:10.124Z,1.20
2019-05-23T17:50:39.510Z,1.10
2019-05-23T17:53:08.886Z,1.05
2019-05-23T17:55:39.199Z,0.90
2019-05-23T17:58:11.673Z,0.88
2019-05-23T18:00:43.256Z,0.85
2019-05-23T18:03:12.743Z,0.90
2019-05-23T18:05:45.360Z,0.88
2019-05-23T18:08:15.057Z,0.98
2019-05-23T18:10:46.126Z,0.90
2019-05-23T18:13:16.315Z,0.80
2019-05-23T18:15:45.898Z,0.95
2019-05-23T18:18:16.155Z,1.00
2019-05-23T18:20:45.930Z,0.90
2019-05-23T18:23:15.893Z,0.80
2019-05-23T18:25:45.496Z,0.90
2019-05-23T18:28:15.275Z,1.00
2019-05-23T18:31:11.576Z,0.95
2019-05-23T18:33:42.891Z,0.82
2019-05-23T18:36:12.381Z,1.20
2019-05-23T18:38:41.754Z,1.47
2019-05-23T18:41:11.721Z,0.90
2019-05-23T18:43:41.889Z,0.95
2019-05-23T18:46:16.731Z,0.80
2019-05-23T18:48:46.336Z,1.00
2019-05-23T18:51:15.977Z,1.20
2019-05-23T18:53:45.431Z,1.10
2019-05-23T18:56:15.709Z,1.15
2019-05-23T18:58:45.194Z,1.85
2019-05-23T19:01:17.762Z,1.32
2019-05-23T19:03:47.236Z,1.72
2019-05-23T19:06:16.651Z,1.30
2019-05-23T19:08:46.135Z,1.35
2019-05-23T19:11:20.748Z,1.20
2019-05-23T19:13:46.591Z,1.37
2019-05-23T19:16:15.968Z,1.77
2019-05-23T19:18:45.840Z,1.55
2019-05-23T19:21:15.780Z,1.50
2019-05-23T19:23:45.214Z,1.62
2019-05-23T19:26:14.915Z,2.25
2019-05-23T19:28:44.567Z,2.40
2019-05-23T19:31:14.589Z,2.05
2019-05-23T19:33:44.040Z,1.40
2019-05-23T19:36:14.298Z,1.45
2019-05-23T19:38:43.721Z,1.52
2019-05-23T19:41:14.096Z,1.55
2019-05-23T19:43:43.548Z,1.47
2019-05-23T19:46:14.706Z,1.40
2019-05-23T19:48:44.984Z,1.40
2019-05-23T19:51:15.954Z,1.65
2019-05-23T19:53:47.288Z,1.57
2019-05-23T19:56:16.773Z,1.50
2019-05-23T19:58:46.064Z,1.60
2019-05-23T20:01:15.573Z,1.30
2019-05-23T20:03:45.300Z,1.37
2019-05-23T20:06:14.773Z,1.57
2019-05-23T20:08:45.473Z,1.37
2019-05-23T20:11:14.952Z,1.50
2019-05-23T20:13:47.145Z,1.50
2019-05-23T20:16:16.543Z,1.87
2019-05-23T20:18:46.423Z,1.57
2019-05-23T20:21:17.112Z,1.95
2019-05-23T20:23:46.512Z,1.87
2019-05-23T20:26:16.203Z,1.70
2019-05-23T20:28:45.583Z,1.67
2019-05-23T20:31:16.645Z,2.10
2019-05-23T20:33:45.981Z,1.90
2019-05-23T20:36:15.843Z,2.12
2019-05-23T20:38:45.501Z,2.37
2019-05-23T20:41:14.888Z,2.77
2019-05-23T20:43:44.360Z,4.50
2019-05-23T20:46:13.739Z,2.85
2019-05-23T20:48:43.211Z,2.40
2019-05-23T20:51:12.710Z,2.62
2019-05-23T20:53:42.757Z,3.22
2019-05-23T20:56:14.155Z,2.83
2019-05-23T20:58:48.826Z,2.58
2019-05-23T21:01:30.744Z,3.17
2019-05-23T21:04:04.827Z,3.67
2019-05-23T21:06:34.336Z,4.00
2019-05-23T21:09:05.231Z,4.80
2019-05-23T21:11:34.702Z,6.28
2019-05-23T21:14:04.485Z,4.53
2019-05-23T21:16:33.910Z,3.30
2019-05-23T21:19:03.248Z,2.75
2019-05-23T21:21:32.627Z,2.52
2019-05-23T21:24:02.694Z,1.98
2019-05-23T21:26:32.198Z,2.27
2019-05-23T21:29:01.611Z,2.62
2019-05-23T21:31:31.015Z,2.55
2019-05-23T21:34:00.707Z,2.83
2019-05-23T21:36:30.316Z,2.30
2019-05-23T21:38:59.635Z,2.10
2019-05-23T21:41:29.015Z,2.35
2019-05-23T21:43:58.495Z,2.67
2019-05-23T21:46:27.831Z,1.77
2019-05-23T21:48:57.232Z,1.87
2019-05-23T21:51:26.604Z,1.70
2019-05-23T21:53:55.954Z,1.62
2019-05-23T21:56:25.312Z,1.82
2019-05-23T21:58:54.610Z,1.65
2019-05-23T22:01:42.213Z,1.82
2019-05-23T22:04:24.151Z,1.80
2019-05-23T22:06:58.455Z,1.70
2019-05-23T22:09:27.859Z,1.50
2019-05-23T22:11:57.495Z,1.80
2019-05-23T22:14:26.817Z,1.40
2019-05-23T22:16:56.324Z,1.55
2019-05-23T22:19:27.211Z,1.42
2019-05-23T22:21:56.561Z,1.40
2019-05-23T22:24:26.559Z,1.47
2019-05-23T22:26:56.110Z,1.70
2019-05-23T22:29:25.508Z,1.50
2019-05-23T22:31:56.466Z,1.60
2019-05-23T22:34:43.967Z,1.90
2019-05-23T22:37:20.505Z,1.57
2019-05-23T22:39:49.842Z,1.60
2019-05-23T22:42:20.288Z,2.00
2019-05-23T22:44:49.941Z,1.98
2019-05-23T22:47:19.285Z,1.65
2019-05-23T22:49:48.579Z,1.80
2019-05-23T22:52:17.919Z,1.87
2019-05-23T22:54:47.323Z,1.82
2019-05-23T22:57:16.729Z,1.82
2019-05-23T22:59:46.187Z,2.00
2019-05-23T23:02:17.468Z,2.12
2019-05-23T23:04:46.922Z,2.40
2019-05-23T23:07:16.687Z,1.80
2019-05-23T23:09:46.131Z,1.80
2019-05-23T23:12:15.547Z,1.60
2019-05-23T23:14:44.968Z,2.10
2019-05-23T23:17:14.652Z,1.60
2019-05-23T23:19:43.996Z,1.70
2019-05-23T23:22:13.461Z,1.60
2019-05-23T23:24:42.756Z,2.00
2019-05-23T23:27:12.080Z,1.80
2019-05-23T23:29:41.718Z,1.53
2019-05-23T23:32:11.273Z,1.90
2019-05-23T23:34:40.655Z,1.80
2019-05-23T23:37:10.078Z,2.30
2019-05-23T23:39:39.445Z,1.90
2019-05-23T23:42:09.422Z,1.85
2019-05-23T23:44:39.399Z,1.70
2019-05-23T23:47:26.497Z,1.40
2019-05-23T23:50:13.771Z,1.60
2019-05-23T23:53:00.784Z,1.65
2019-05-23T23:56:06.903Z,1.60
2019-05-23T23:58:35.622Z,1.60
